Time;durP1;ratioP1;P1;durP2;ratioP2;P2;SDS_P1;SDS_P2;PMS_P1;PMS_P2;Temp;Humidity;BMP_temperature;BMP_pressure;BME280_temperature;BME280_humidity;BME280_pressure;Samples;Min_cycle;Max_cycle;Signal;HPM_P1;HPM_P2
2021/03/13 04:00:52;;;;;;;2.88;2.67;;;7.10;57.90;;;;;;5796751;23;20078;-83
2021/03/13 04:03:22;;;;;;;2.80;2.42;;;7.00;58.30;;;;;;5001458;28;20049;-82
2021/03/13 04:05:48;;;;;;;2.70;2.30;;;7.00;59.10;;;;;;4998619;28;20069;-83
2021/03/13 04:08:17;;;;;;;2.30;2.20;;;6.90;59.10;;;;;;5020309;28;20344;-81
2021/03/13 04:10:48;;;;;;;2.30;2.10;;;6.80;59.10;;;;;;5021015;28;20070;-82
2021/03/13 04:13:18;;;;;;;4.45;2.85;;;6.80;59.10;;;;;;5018920;28;20049;-83
2021/03/13 04:15:46;;;;;;;3.50;2.50;;;6.70;58.80;;;;;;5020261;28;20150;-82
2021/03/13 04:18:12;;;;;;;2.30;2.17;;;6.70;59.10;;;;;;5022957;28;20450;-82
2021/03/13 04:20:39;;;;;;;2.30;2.10;;;6.70;59.40;;;;;;5021451;28;20042;-81
2021/03/13 04:23:07;;;;;;;2.40;2.25;;;6.70;58.80;;;;;;5029617;28;20089;-83
2021/03/13 04:25:35;;;;;;;2.30;2.10;;;6.70;59.50;;;;;;5035211;28;20057;-83
2021/03/13 04:28:01;;;;;;;2.13;2.00;;;6.70;58.10;;;;;;5034348;28;20038;-82
2021/03/13 04:30:27;;;;;;;2.58;2.33;;;6.70;58.40;;;;;;5040074;28;20062;-82
2021/03/13 04:32:56;;;;;;;2.13;2.03;;;6.60;58.80;;;;;;5038676;28;20077;-83
2021/03/13 04:35:24;;;;;;;2.50;2.33;;;6.70;58.30;;;;;;5041918;28;20114;-82
2021/03/13 04:37:50;;;;;;;2.70;2.50;;;6.60;58.40;;;;;;5042782;28;20038;-82
2021/03/13 04:40:16;;;;;;;3.05;2.47;;;6.60;58.80;;;;;;5048122;28;20044;-83
2021/03/13 04:42:44;;;;;;;3.35;3.15;;;6.60;59.50;;;;;;5053395;28;20126;-81
2021/03/13 04:45:11;;;;;;;2.33;2.10;;;6.40;59.20;;;;;;5050046;28;20528;-82
2021/03/13 04:47:42;;;;;;;5.38;2.47;;;6.40;59.00;;;;;;5038682;28;20048;-83
2021/03/13 04:50:08;;;;;;;2.10;2.00;;;6.40;58.40;;;;;;5031881;28;20398;-81
2021/03/13 04:52:33;;;;;;;2.00;1.90;;;6.40;58.70;;;;;;5043966;28;20112;-83
2021/03/13 04:54:59;;;;;;;2.30;2.10;;;6.30;59.00;;;;;;5039342;28;20046;-83
2021/03/13 04:57:25;;;;;;;2.40;2.30;;;6.30;59.30;;;;;;5031362;28;20042;-82
2021/03/13 04:59:50;;;;;;;3.20;2.80;;;6.20;59.50;;;;;;5041474;28;20038;-82
2021/03/13 05:02:17;;;;;;;2.20;2.00;;;6.10;60.00;;;;;;5035979;28;20070;-79
2021/03/13 05:04:42;;;;;;;2.83;2.63;;;6.00;59.90;;;;;;5041932;28;20042;-81
2021/03/13 05:07:08;;;;;;;2.95;2.72;;;6.00;60.50;;;;;;5041057;28;20456;-79
2021/03/13 05:09:34;;;;;;;2.17;2.08;;;6.00;60.80;;;;;;5047888;28;20046;-81
2021/03/13 05:12:00;;;;;;;4.43;2.40;;;6.00;61.60;;;;;;5042608;28;20046;-82
2021/03/13 05:14:26;;;;;;;2.17;2.08;;;5.90;61.30;;;;;;5050899;28;20030;-82
2021/03/13 05:16:52;;;;;;;2.47;2.28;;;6.00;60.80;;;;;;5040853;28;20049;-82
2021/03/13 05:19:17;;;;;;;4.25;3.05;;;6.00;60.00;;;;;;5050963;28;20050;-82
2021/03/13 05:21:43;;;;;;;2.67;2.47;;;6.00;60.40;;;;;;5050516;28;20516;-81
2021/03/13 05:24:09;;;;;;;2.45;2.25;;;6.20;58.70;;;;;;5036958;28;20062;-80
2021/03/13 05:26:35;;;;;;;2.40;2.30;;;6.20;59.10;;;;;;5049283;28;20157;-81
2021/03/13 05:29:01;;;;;;;2.05;1.95;;;6.30;57.50;;;;;;5046982;28;20034;-80
2021/03/13 05:31:27;;;;;;;2.13;2.03;;;6.30;58.10;;;;;;5043771;28;20056;-81
2021/03/13 05:33:53;;;;;;;3.25;2.28;;;6.30;58.20;;;;;;5050298;28;20046;-81
2021/03/13 05:36:18;;;;;;;3.13;2.42;;;6.30;58.60;;;;;;5041821;28;20478;-80
2021/03/13 05:38:44;;;;;;;2.67;2.55;;;6.30;59.00;;;;;;5049226;28;20061;-82
2021/03/13 05:41:10;;;;;;;2.42;2.28;;;6.30;57.70;;;;;;5045648;28;20125;-81
2021/03/13 05:43:38;;;;;;;1.90;1.88;;;6.40;58.10;;;;;;5042859;28;20587;-81
2021/03/13 05:46:06;;;;;;;2.20;2.00;;;6.40;57.30;;;;;;5051347;28;20041;-81
2021/03/13 05:48:35;;;;;;;2.92;2.72;;;6.40;56.40;;;;;;5051380;28;20501;-80
2021/03/13 05:51:02;;;;;;;2.63;2.42;;;6.60;56.40;;;;;;5044036;28;20042;-82
2021/03/13 05:53:30;;;;;;;2.33;2.22;;;6.50;55.60;;;;;;5039451;28;20050;-81
2021/03/13 05:55:56;;;;;;;2.00;1.90;;;6.50;56.30;;;;;;5047906;28;20049;-79
2021/03/13 05:58:22;;;;;;;6.28;2.47;;;6.50;56.70;;;;;;5038574;28;20046;-80
2021/03/13 06:00:49;;;;;;;4.35;2.58;;;6.60;56.30;;;;;;5044615;28;20066;-82
2021/03/13 06:03:15;;;;;;;2.47;2.38;;;7.00;54.30;;;;;;5048805;28;20122;-81
2021/03/13 06:05:45;;;;;;;2.47;2.38;;;7.00;54.70;;;;;;5037076;28;20042;-81
2021/03/13 06:08:13;;;;;;;2.75;2.60;;;7.10;54.20;;;;;;5031391;28;20042;-81
2021/03/13 06:10:39;;;;;;;3.00;2.90;;;7.40;52.60;;;;;;5050069;28;20038;-81
2021/03/13 06:13:06;;;;;;;2.95;2.75;;;7.30;53.10;;;;;;5042532;28;20574;-79
2021/03/13 06:15:32;;;;;;;2.25;2.15;;;7.40;53.30;;;;;;5049565;28;20516;-82
2021/03/13 06:17:59;;;;;;;2.83;2.58;;;7.40;53.00;;;;;;5050573;28;20872;-81
2021/03/13 06:20:28;;;;;;;2.33;2.13;;;7.30;53.60;;;;;;5032718;28;20129;-81
2021/03/13 06:22:54;;;;;;;2.42;2.22;;;7.40;53.50;;;;;;5044327;28;20045;-81
2021/03/13 06:25:21;;;;;;;2.92;2.72;;;7.50;52.60;;;;;;5052025;28;20092;-80
2021/03/13 06:28:07;;;;;;;2.55;2.35;;;7.90;53.60;;;;;;5048933;28;20068;-80
2021/03/13 06:30:43;;;;;;;2.60;2.40;;;8.50;54.30;;;;;;5039745;28;20090;-81
2021/03/13 06:33:21;;;;;;;2.72;2.53;;;9.00;49.90;;;;;;5050347;28;20038;-80
2021/03/13 06:35:48;;;;;;;2.60;2.40;;;9.40;47.40;;;;;;5044768;28;20046;-81
2021/03/13 06:38:19;;;;;;;2.65;2.28;;;9.60;47.70;;;;;;5050810;28;20042;-81
2021/03/13 06:40:45;;;;;;;2.63;2.50;;;10.10;46.80;;;;;;5049234;28;20495;-82
2021/03/13 06:43:28;;;;;;;2.60;2.50;;;11.10;45.50;;;;;;5040523;28;20080;-81
2021/03/13 06:45:58;;;;;;;2.78;2.47;;;11.70;44.70;;;;;;5045470;28;20465;-81
2021/03/13 06:48:33;;;;;;;2.70;2.50;;;11.80;45.50;;;;;;5047791;28;20041;-82
2021/03/13 06:51:21;;;;;;;2.70;2.50;;;12.10;44.80;;;;;;5026710;28;20034;-81
2021/03/13 06:54:07;;;;;;;2.45;2.28;;;12.60;44.50;;;;;;5040033;28;20592;-84
2021/03/13 06:56:40;;;;;;;3.30;2.40;;;12.90;44.50;;;;;;5044552;28;20042;-81
2021/03/13 06:59:21;;;;;;;2.78;2.50;;;12.90;43.20;;;;;;5044466;28;20068;-82
2021/03/13 07:01:56;;;;;;;;;;;13.50;43.10;;;;;;5047383;28;20071;-81
2021/03/13 07:04:30;;;;;;;2.75;2.55;;;14.20;42.80;;;;;;5041121;28;19991;-82
2021/03/13 07:06:56;;;;;;;3.33;3.13;;;14.50;42.00;;;;;;5041628;28;20053;-81
2021/03/13 07:09:46;;;;;;;2.70;2.50;;;15.20;41.10;;;;;;5039491;28;20042;-84
2021/03/13 07:12:22;;;;;;;2.50;2.40;;;16.30;39.50;;;;;;5041631;28;20694;-82
2021/03/13 07:14:48;;;;;;;3.70;2.72;;;17.40;38.40;;;;;;5042262;28;20060;-84
2021/03/13 07:17:14;;;;;;;2.70;2.50;;;17.60;37.20;;;;;;5045097;28;20156;-85
2021/03/13 07:19:42;;;;;;;2.50;2.30;;;17.80;37.60;;;;;;5050275;28;20042;-84
2021/03/13 07:22:08;;;;;;;2.75;2.50;;;18.10;37.20;;;;;;5042598;28;20026;-82
2021/03/13 07:24:35;;;;;;;2.58;2.47;;;17.60;37.10;;;;;;5044451;28;20053;-82
2021/03/13 07:27:03;;;;;;;3.10;2.88;;;17.70;36.70;;;;;;5041646;28;20876;-82
2021/03/13 07:29:30;;;;;;;3.60;3.30;;;17.90;36.30;;;;;;5040256;28;20044;-82
2021/03/13 07:32:05;;;;;;;2.92;2.72;;;17.70;36.50;;;;;;5042664;28;20864;-82
2021/03/13 07:34:36;;;;;;;3.25;3.00;;;18.10;36.70;;;;;;5031552;28;20085;-83
2021/03/13 07:37:04;;;;;;;4.43;2.70;;;18.70;36.20;;;;;;5042967;28;20827;-83
2021/03/13 07:39:45;;;;;;;2.38;2.17;;;20.00;35.40;;;;;;5042349;28;20042;-83
2021/03/13 07:42:12;;;;;;;;;;;19.30;32.90;;;;;;5046189;28;20064;-81
2021/03/13 07:44:41;;;;;;;3.10;2.90;;;18.60;33.70;;;;;;5042439;28;19925;-80
2021/03/13 07:47:09;;;;;;;2.40;2.30;;;17.60;34.40;;;;;;5020540;28;20062;-81
2021/03/13 07:49:36;;;;;;;2.83;2.55;;;17.90;35.80;;;;;;5034728;28;20034;-84
2021/03/13 07:52:04;;;;;;;2.50;2.40;;;17.90;35.70;;;;;;5039300;28;20088;-84
2021/03/13 07:54:31;;;;;;;2.95;2.80;;;17.90;37.50;;;;;;5043540;28;20034;-83
2021/03/13 07:56:59;;;;;;;2.78;2.58;;;18.00;35.80;;;;;;5044445;28;20076;-82
2021/03/13 07:59:45;;;;;;;2.80;2.60;;;17.70;35.30;;;;;;5055264;28;20105;-82
2021/03/13 08:02:35;;;;;;;2.95;2.50;;;18.00;35.30;;;;;;5057148;28;20038;-81
2021/03/13 08:05:08;;;;;;;3.35;3.03;;;18.60;35.50;;;;;;5037491;28;20076;-83
2021/03/13 08:07:56;;;;;;;3.17;2.95;;;19.00;34.00;;;;;;5059820;28;20378;-81
2021/03/13 08:10:44;;;;;;;3.38;2.95;;;19.10;33.90;;;;;;5055152;28;20102;-81
2021/03/13 08:13:13;;;;;;;2.65;2.45;;;19.10;33.90;;;;;;5063900;28;20251;-83
2021/03/13 08:15:45;;;;;;;3.17;2.85;;;19.40;32.80;;;;;;5058466;28;20037;-84
2021/03/13 08:18:40;;;;;;;2.50;2.30;;;18.90;33.70;;;;;;5050016;28;20125;-81
2021/03/13 08:21:18;;;;;;;21.70;11.70;;;18.30;33.80;;;;;;5039808;28;20042;-83
2021/03/13 08:23:47;;;;;;;6.47;5.22;;;17.80;34.70;;;;;;5040790;28;20061;-84
2021/03/13 08:26:13;;;;;;;4.70;4.30;;;17.80;35.30;;;;;;5030945;28;20586;-83
2021/03/13 08:28:48;;;;;;;2.40;2.30;;;17.50;35.20;;;;;;5039192;28;20049;-80
2021/03/13 08:31:23;;;;;;;2.60;2.50;;;18.10;34.70;;;;;;5051088;28;20037;-81
2021/03/13 08:33:52;;;;;;;2.83;2.63;;;17.90;34.40;;;;;;5042499;28;20046;-80
2021/03/13 08:36:47;;;;;;;5.70;5.05;;;16.90;34.70;;;;;;5043764;28;20034;-82
2021/03/13 08:39:18;;;;;;;13.48;9.73;;;16.70;35.50;;;;;;5047620;28;20042;-83
2021/03/13 08:41:43;;;;;;;2.40;2.20;;;17.20;35.50;;;;;;5050192;28;20108;-84
2021/03/13 08:44:12;;;;;;;13.38;11.98;;;17.40;34.10;;;;;;5038027;28;20491;-80
2021/03/13 08:46:53;;;;;;;9.43;6.78;;;18.30;33.60;;;;;;5057393;28;20042;-83
2021/03/13 08:49:24;;;;;;;;;;;18.80;33.40;;;;;;5044381;28;20141;-83
2021/03/13 08:52:10;;;;;;;8.30;6.63;;;19.10;31.90;;;;;;5048961;28;19945;-80
2021/03/13 08:54:44;;;;;;;234.13;112.03;;;19.70;31.90;;;;;;5027312;28;20042;-81
2021/03/13 08:57:16;;;;;;;36.28;22.83;;;20.60;30.80;;;;;;5050814;28;20053;-79
2021/03/13 08:59:43;;;;;;;3.50;3.20;;;21.30;31.40;;;;;;5048942;28;20047;-80
2021/03/13 09:02:12;;;;;;;13.93;9.40;;;21.50;31.80;;;;;;5047424;28;20046;-79
2021/03/13 09:04:43;;;;;;;15.75;7.80;;;22.00;30.20;;;;;;5047722;28;20049;-81
2021/03/13 09:07:10;;;;;;;3.83;3.40;;;23.00;29.40;;;;;;5027191;28;20090;-80
2021/03/13 09:09:38;;;;;;;3.30;3.00;;;23.40;30.00;;;;;;5052253;28;20750;-79
2021/03/13 09:12:09;;;;;;;3.05;2.80;;;24.30;28.50;;;;;;5042978;28;20049;-78
2021/03/13 09:14:58;;;;;;;6.35;4.53;;;25.20;28.90;;;;;;5032811;28;20049;-78
2021/03/13 09:17:26;;;;;;;4.47;3.80;;;25.10;28.80;;;;;;5046473;28;20042;-87
2021/03/13 09:19:53;;;;;;;4.00;3.42;;;24.50;28.00;;;;;;5040194;28;20046;-88
2021/03/13 09:22:23;;;;;;;10.55;7.15;;;24.20;28.50;;;;;;5040100;28;20100;-87
2021/03/13 09:24:54;;;;;;;;;;;23.70;28.60;;;;;;5040655;28;20073;-85
2021/03/13 09:27:30;;;;;;;2.60;2.40;;;22.30;29.30;;;;;;5039887;28;19925;-85
2021/03/13 09:29:59;;;;;;;2.50;2.30;;;21.40;30.30;;;;;;5026015;28;20924;-87
2021/03/13 09:32:27;;;;;;;2.60;2.40;;;21.20;30.30;;;;;;5037445;28;20042;-81
2021/03/13 09:34:55;;;;;;;2.70;2.50;;;21.90;30.20;;;;;;5040172;28;20038;-82
2021/03/13 09:37:21;;;;;;;2.47;2.30;;;23.20;29.60;;;;;;5036044;28;20061;-82
2021/03/13 09:39:49;;;;;;;3.15;2.95;;;23.70;29.00;;;;;;5041377;28;20076;-83
2021/03/13 09:42:16;;;;;;;3.08;2.63;;;24.40;28.30;;;;;;5033977;28;20038;-83
2021/03/13 09:44:51;;;;;;;2.90;2.70;;;25.20;27.80;;;;;;5038058;28;20038;-82
2021/03/13 09:47:25;;;;;;;4.90;3.92;;;24.90;27.60;;;;;;5036422;28;20104;-81
2021/03/13 09:49:53;;;;;;;6.95;5.45;;;26.20;27.70;;;;;;5040415;28;20042;-82
2021/03/13 09:52:29;;;;;;;2.90;2.50;;;27.60;26.90;;;;;;5039240;28;20107;-81
2021/03/13 09:54:59;;;;;;;2.20;2.10;;;26.40;26.90;;;;;;5038181;28;20045;-82
2021/03/13 09:57:26;;;;;;;2.87;2.70;;;25.00;27.40;;;;;;5034995;28;21341;-80
2021/03/13 09:59:52;;;;;;;2.85;2.65;;;23.90;28.40;;;;;;5036641;28;20045;-82
2021/03/13 10:02:20;;;;;;;2.97;2.60;;;24.30;28.30;;;;;;5037722;28;20042;-80
2021/03/13 10:04:50;;;;;;;2.60;2.40;;;24.50;28.30;;;;;;5038832;28;20046;-80
2021/03/13 10:07:16;;;;;;;2.88;2.47;;;25.70;28.10;;;;;;5038706;28;20045;-81
2021/03/13 10:10:00;;;;;;;2.60;2.40;;;26.70;27.20;;;;;;5037617;28;20052;-82
2021/03/13 10:12:28;;;;;;;2.50;2.40;;;27.50;27.00;;;;;;5038035;28;20046;-80
2021/03/13 10:14:54;;;;;;;2.70;2.50;;;26.90;26.60;;;;;;5042025;28;20045;-80
2021/03/13 10:17:20;;;;;;;2.85;2.65;;;26.40;27.20;;;;;;5037764;28;20172;-80
2021/03/13 10:19:46;;;;;;;2.53;2.42;;;25.60;27.60;;;;;;5037596;28;20064;-81
2021/03/13 10:22:15;;;;;;;3.65;2.60;;;25.30;28.00;;;;;;5041377;28;20058;-83
2021/03/13 10:25:07;;;;;;;2.17;2.08;;;24.40;28.00;;;;;;5042133;28;20050;-82
2021/03/13 10:27:33;;;;;;;2.47;2.28;;;23.50;28.60;;;;;;5044619;28;20041;-80
2021/03/13 10:30:10;;;;;;;2.40;2.20;;;22.40;29.00;;;;;;5044407;28;20127;-81
2021/03/13 10:32:37;;;;;;;2.45;2.35;;;21.10;30.50;;;;;;5043550;28;20045;-82
2021/03/13 10:35:10;;;;;;;2.50;2.40;;;21.60;30.60;;;;;;5032735;28;20465;-82
2021/03/13 10:37:44;;;;;;;2.70;2.50;;;22.80;29.40;;;;;;5043397;28;20823;-82
2021/03/13 10:40:27;;;;;;;2.17;2.08;;;24.10;28.80;;;;;;5020251;28;20046;-81
2021/03/13 10:43:08;;;;;;;3.00;2.42;;;24.60;28.10;;;;;;5041424;28;20049;-81
2021/03/13 10:45:33;;;;;;;2.72;2.53;;;25.10;28.00;;;;;;5042818;28;20093;-83
2021/03/13 10:48:05;;;;;;;4.07;3.10;;;25.90;27.70;;;;;;5041974;28;20042;-83
2021/03/13 10:50:30;;;;;;;2.22;2.08;;;26.30;27.20;;;;;;5050099;28;20038;-86
2021/03/13 10:52:56;;;;;;;2.70;2.50;;;26.40;27.80;;;;;;5032445;28;20042;-86
2021/03/13 10:55:38;;;;;;;2.60;2.40;;;26.90;27.10;;;;;;5034831;28;20046;-85
2021/03/13 10:58:04;;;;;;;2.85;2.65;;;27.70;26.60;;;;;;5038453;28;20037;-85
2021/03/13 11:00:29;;;;;;;2.60;2.50;;;28.60;26.10;;;;;;5036462;28;20113;-85
2021/03/13 11:02:55;;;;;;;3.15;2.85;;;28.10;26.00;;;;;;5043200;28;20175;-84
2021/03/13 11:05:21;;;;;;;2.92;2.78;;;28.40;26.00;;;;;;5043885;28;20042;-83
2021/03/13 11:07:48;;;;;;;2.78;2.58;;;28.80;25.80;;;;;;5025820;28;20050;-83
2021/03/13 11:10:14;;;;;;;2.50;2.40;;;29.60;25.10;;;;;;5033780;28;20991;-85
2021/03/13 11:12:40;;;;;;;2.95;2.40;;;29.80;25.30;;;;;;5037494;28;20093;-84
2021/03/13 11:15:06;;;;;;;3.00;2.63;;;29.60;24.80;;;;;;5023034;28;20080;-86
2021/03/13 11:17:32;;;;;;;2.80;2.60;;;30.30;24.70;;;;;;5037641;28;20084;-86
2021/03/13 11:19:57;;;;;;;3.05;2.78;;;30.40;25.10;;;;;;5020061;28;20046;-83
2021/03/13 11:22:23;;;;;;;2.70;2.60;;;29.70;24.80;;;;;;5021977;28;20038;-85
2021/03/13 11:24:49;;;;;;;2.70;2.60;;;29.40;24.60;;;;;;5035993;28;20045;-85
2021/03/13 11:27:14;;;;;;;2.95;2.75;;;28.90;24.70;;;;;;5035993;28;20074;-84
2021/03/13 11:29:40;;;;;;;2.80;2.60;;;27.90;25.00;;;;;;5040851;28;20070;-83
2021/03/13 11:32:06;;;;;;;2.97;2.70;;;27.00;25.30;;;;;;5038939;28;20172;-85
2021/03/13 11:34:32;;;;;;;2.80;2.60;;;27.60;25.40;;;;;;5040289;28;20045;-85
2021/03/13 11:36:57;;;;;;;2.80;2.60;;;27.10;25.60;;;;;;5027342;28;20045;-84
2021/03/13 11:39:23;;;;;;;2.33;2.22;;;27.20;25.50;;;;;;5031928;28;20060;-84
2021/03/13 11:41:49;;;;;;;2.60;2.40;;;27.60;25.80;;;;;;5037558;28;20046;-85
2021/03/13 11:44:15;;;;;;;2.92;2.72;;;29.20;25.30;;;;;;5037603;28;20050;-85
2021/03/13 11:46:41;;;;;;;3.20;3.00;;;29.00;24.90;;;;;;5036253;28;20481;-86
2021/03/13 11:49:07;;;;;;;3.13;2.95;;;28.80;25.20;;;;;;5017798;28;20066;-85
2021/03/13 11:51:32;;;;;;;3.05;2.85;;;28.60;25.20;;;;;;5037283;28;20062;-84
2021/03/13 11:53:58;;;;;;;3.00;2.80;;;29.30;24.60;;;;;;5035350;28;20053;-85
2021/03/13 11:56:24;;;;;;;2.75;2.60;;;29.90;24.60;;;;;;5034438;28;20050;-86
2021/03/13 11:58:49;;;;;;;2.90;2.70;;;30.80;24.40;;;;;;5036851;28;20440;-87
2021/03/13 12:01:17;;;;;;;2.70;2.60;;;30.30;24.70;;;;;;5035274;28;20054;-86
2021/03/13 12:03:43;;;;;;;3.05;2.80;;;30.10;24.70;;;;;;5022281;28;20096;-86
2021/03/13 12:06:10;;;;;;;3.22;3.03;;;30.30;24.50;;;;;;5040348;28;20061;-87
2021/03/13 12:08:36;;;;;;;2.80;2.70;;;30.30;24.50;;;;;;5038637;28;20046;-87
2021/03/13 12:11:01;;;;;;;3.10;2.90;;;30.30;24.70;;;;;;5036339;28;20391;-86
2021/03/13 12:13:27;;;;;;;3.00;2.80;;;29.20;24.50;;;;;;5040649;28;20073;-83
2021/03/13 12:15:53;;;;;;;2.97;2.80;;;28.00;25.50;;;;;;5039639;28;20046;-86
2021/03/13 12:18:19;;;;;;;3.05;2.85;;;27.40;25.70;;;;;;5039162;28;20034;-85
2021/03/13 12:20:45;;;;;;;2.80;2.60;;;27.40;25.60;;;;;;5039600;28;20062;-87
2021/03/13 12:23:11;;;;;;;3.42;3.10;;;26.40;26.20;;;;;;5042904;28;20068;-84
2021/03/13 12:25:37;;;;;;;2.92;2.75;;;26.30;26.20;;;;;;5036957;28;20046;-86
2021/03/13 12:28:02;;;;;;;3.47;3.10;;;26.00;26.10;;;;;;5038558;28;20048;-87
2021/03/13 12:30:28;;;;;;;2.47;2.38;;;26.00;25.80;;;;;;5037153;28;20046;-86
2021/03/13 12:32:56;;;;;;;2.95;2.75;;;26.00;26.30;;;;;;5035111;28;20049;-84
2021/03/13 12:35:22;;;;;;;2.80;2.60;;;26.60;25.40;;;;;;5035179;28;20083;-84
2021/03/13 12:37:47;;;;;;;3.00;2.80;;;26.10;25.70;;;;;;5022966;28;20441;-85
2021/03/13 12:40:13;;;;;;;3.00;2.70;;;26.30;25.80;;;;;;5042008;28;20046;-86
2021/03/13 12:42:39;;;;;;;2.75;2.60;;;25.60;25.30;;;;;;5035347;28;20069;-86
2021/03/13 12:45:07;;;;;;;2.90;2.40;;;25.70;25.20;;;;;;5035887;28;20094;-86
2021/03/13 12:47:32;;;;;;;3.45;2.40;;;25.20;25.80;;;;;;5042661;28;20133;-86
2021/03/13 12:49:58;;;;;;;2.38;2.28;;;24.40;26.00;;;;;;5037459;28;20132;-87
2021/03/13 12:52:24;;;;;;;2.50;2.40;;;24.50;26.20;;;;;;5022670;28;20055;-83
2021/03/13 12:54:51;;;;;;;2.65;2.50;;;24.60;26.40;;;;;;5040551;28;20050;-85
2021/03/13 12:57:17;;;;;;;2.35;2.15;;;24.30;25.80;;;;;;5037881;28;20042;-86
2021/03/13 12:59:44;;;;;;;2.30;1.95;;;23.40;26.70;;;;;;5037548;28;20105;-83
2021/03/13 13:02:10;;;;;;;2.10;2.00;;;22.50;27.20;;;;;;5038839;28;20050;-82
2021/03/13 13:04:36;;;;;;;2.50;2.40;;;22.50;27.30;;;;;;5040114;28;20037;-82
2021/03/13 13:07:01;;;;;;;2.40;2.30;;;23.00;26.90;;;;;;5039303;28;20050;-84
2021/03/13 13:09:27;;;;;;;2.38;2.28;;;23.20;26.70;;;;;;5040430;28;20045;-83
2021/03/13 13:11:52;;;;;;;2.60;2.50;;;23.10;26.50;;;;;;5038742;28;20117;-82
2021/03/13 13:14:18;;;;;;;2.75;2.55;;;23.40;26.40;;;;;;5035315;28;20053;-83
2021/03/13 13:16:44;;;;;;;2.63;2.53;;;23.30;26.40;;;;;;5040833;28;20484;-83
2021/03/13 13:19:09;;;;;;;2.67;2.50;;;22.90;27.30;;;;;;5040376;28;20482;-82
2021/03/13 13:21:36;;;;;;;3.47;2.63;;;22.80;27.10;;;;;;5039819;28;20046;-84
2021/03/13 13:24:02;;;;;;;2.60;2.50;;;21.90;28.10;;;;;;5037267;28;20057;-82
2021/03/13 13:26:28;;;;;;;2.70;2.50;;;20.80;28.20;;;;;;5037285;28;20050;-85
2021/03/13 13:28:53;;;;;;;2.70;2.60;;;20.90;28.50;;;;;;5038887;28;20478;-84
2021/03/13 13:31:19;;;;;;;2.80;2.70;;;20.80;28.50;;;;;;5041561;28;20085;-84
2021/03/13 13:33:48;;;;;;;2.40;2.30;;;20.80;28.30;;;;;;5040229;28;20046;-82
2021/03/13 13:36:13;;;;;;;3.47;2.58;;;20.90;29.30;;;;;;5041056;28;20045;-83
2021/03/13 13:38:39;;;;;;;2.53;2.33;;;21.00;28.80;;;;;;5039925;28;20132;-84
2021/03/13 13:41:05;;;;;;;2.28;2.03;;;21.70;27.90;;;;;;5042981;28;20050;-83
2021/03/13 13:43:32;;;;;;;2.70;2.50;;;21.50;27.90;;;;;;5038515;28;20043;-83
2021/03/13 13:45:58;;;;;;;2.50;2.40;;;21.30;27.70;;;;;;5036280;28;20525;-82
2021/03/13 13:48:24;;;;;;;2.10;2.00;;;20.70;27.50;;;;;;5038739;28;20039;-83
2021/03/13 13:50:49;;;;;;;2.88;2.20;;;20.00;28.80;;;;;;5038766;28;20073;-82
2021/03/13 13:53:16;;;;;;;2.10;2.00;;;19.50;29.50;;;;;;5039358;28;20103;-84
2021/03/13 13:55:46;;;;;;;2.22;2.13;;;19.40;29.10;;;;;;5034763;28;20047;-82
2021/03/13 13:58:12;;;;;;;2.28;2.17;;;18.90;29.30;;;;;;5039679;28;20089;-81
2021/03/13 14:00:38;;;;;;;2.35;2.20;;;18.60;29.80;;;;;;5040096;28;20074;-85
2021/03/13 14:03:04;;;;;;;2.33;2.17;;;18.40;30.20;;;;;;5039835;28;20052;-86
2021/03/13 14:05:30;;;;;;;2.25;2.15;;;18.20;29.70;;;;;;5033815;28;20038;-81
2021/03/13 14:07:56;;;;;;;1.90;1.80;;;17.90;30.40;;;;;;5037610;28;20540;-80
2021/03/13 14:10:22;;;;;;;2.30;2.10;;;18.00;31.10;;;;;;5038835;28;20145;-81
2021/03/13 14:12:48;;;;;;;2.60;2.40;;;17.90;31.40;;;;;;5038572;28;20129;-82
2021/03/13 14:15:14;;;;;;;2.20;2.00;;;17.90;31.50;;;;;;5040230;28;20073;-81
2021/03/13 14:17:40;;;;;;;3.47;2.47;;;17.70;31.60;;;;;;5045898;28;20046;-81
2021/03/13 14:20:06;;;;;;;2.55;1.90;;;17.80;31.00;;;;;;5046354;28;20072;-82
2021/03/13 14:22:32;;;;;;;2.03;1.92;;;17.70;31.30;;;;;;5047378;28;20367;-81
2021/03/13 14:24:58;;;;;;;2.50;2.30;;;17.60;30.60;;;;;;5042108;28;20042;-83
2021/03/13 14:27:24;;;;;;;3.83;2.50;;;17.30;31.40;;;;;;5042806;28;20046;-81
2021/03/13 14:29:50;;;;;;;2.25;2.15;;;17.40;31.50;;;;;;5038489;28;20447;-80
2021/03/13 14:32:16;;;;;;;2.50;2.00;;;17.50;31.50;;;;;;5050646;28;20053;-83
2021/03/13 14:34:43;;;;;;;2.25;2.05;;;17.30;31.30;;;;;;5039257;28;20046;-82
2021/03/13 14:37:08;;;;;;;2.33;2.10;;;17.00;31.70;;;;;;5041840;28;20037;-83
2021/03/13 14:39:35;;;;;;;3.40;3.00;;;16.70;32.40;;;;;;5051929;28;20041;-85
2021/03/13 14:42:01;;;;;;;2.78;2.47;;;16.90;32.40;;;;;;5049833;28;20121;-83
2021/03/13 14:44:28;;;;;;;2.42;2.25;;;16.90;32.30;;;;;;5053602;28;20045;-84
2021/03/13 14:46:54;;;;;;;2.30;2.20;;;17.00;32.10;;;;;;5046017;28;20125;-83
2021/03/13 14:49:20;;;;;;;2.72;2.53;;;17.00;32.50;;;;;;5047457;28;20030;-85
2021/03/13 14:51:49;;;;;;;2.88;2.67;;;16.90;33.50;;;;;;5043715;28;20049;-84
2021/03/13 14:54:16;;;;;;;2.60;2.40;;;16.90;33.10;;;;;;5037310;28;20038;-85
2021/03/13 14:56:42;;;;;;;2.88;2.67;;;16.70;33.00;;;;;;5038294;28;20057;-85
2021/03/13 14:59:09;;;;;;;2.92;2.70;;;16.60;32.70;;;;;;5041433;28;20046;-84
2021/03/13 15:01:35;;;;;;;2.33;2.13;;;16.30;32.80;;;;;;5037733;28;20049;-84
2021/03/13 15:04:01;;;;;;;2.17;2.08;;;16.00;33.70;;;;;;5038452;28;20038;-84
2021/03/13 15:06:26;;;;;;;2.20;2.10;;;15.90;34.40;;;;;;5025044;28;20038;-85
2021/03/13 15:08:52;;;;;;;2.20;1.83;;;15.90;34.20;;;;;;5041785;28;20089;-85
2021/03/13 15:11:19;;;;;;;2.10;2.00;;;15.70;34.50;;;;;;5029921;28;20105;-85
2021/03/13 15:13:45;;;;;;;2.22;2.13;;;15.60;34.50;;;;;;5030543;28;20061;-85
2021/03/13 15:16:11;;;;;;;2.00;1.90;;;15.50;35.30;;;;;;5036737;28;20046;-84
2021/03/13 15:18:37;;;;;;;2.00;1.90;;;15.50;35.80;;;;;;5048714;28;20042;-85
2021/03/13 15:21:07;;;;;;;2.63;2.10;;;15.30;35.10;;;;;;5037534;28;20069;-85
2021/03/13 15:23:34;;;;;;;1.92;1.83;;;15.10;35.20;;;;;;5038528;28;20076;-84
2021/03/13 15:26:00;;;;;;;2.33;2.22;;;14.90;37.50;;;;;;5026805;28;20406;-85
2021/03/13 15:28:26;;;;;;;1.80;1.70;;;14.60;38.40;;;;;;5042150;28;20038;-84
2021/03/13 15:30:52;;;;;;;1.90;1.80;;;14.40;38.90;;;;;;5042524;28;20156;-84
2021/03/13 15:33:18;;;;;;;2.10;1.85;;;14.20;39.90;;;;;;5029001;28;20046;-84
2021/03/13 15:35:44;;;;;;;1.85;1.75;;;13.90;41.30;;;;;;5039874;28;20406;-85
2021/03/13 15:38:10;;;;;;;2.20;2.10;;;13.80;41.00;;;;;;5035017;28;20038;-86
2021/03/13 15:40:36;;;;;;;2.10;1.90;;;13.80;42.10;;;;;;5047925;28;20046;-84
2021/03/13 15:43:04;;;;;;;1.90;1.80;;;13.70;42.50;;;;;;5034111;28;20051;-84
2021/03/13 15:45:30;;;;;;;1.85;1.75;;;13.60;41.90;;;;;;5029229;28;20030;-84
2021/03/13 15:47:56;;;;;;;1.85;1.70;;;13.50;41.70;;;;;;5049921;28;20168;-85
2021/03/13 15:50:21;;;;;;;2.10;2.03;;;13.20;42.40;;;;;;5042807;28;20498;-85
2021/03/13 15:52:47;;;;;;;2.13;2.03;;;13.00;44.20;;;;;;5037048;28;20048;-85
2021/03/13 15:55:15;;;;;;;3.40;3.05;;;12.70;44.50;;;;;;5046621;28;20816;-85
2021/03/13 15:57:44;;;;;;;2.72;2.53;;;12.30;51.10;;;;;;5047567;28;20031;-85
2021/03/13 16:00:12;;;;;;;5.70;4.00;;;11.80;55.40;;;;;;5029653;28;20026;-84
2021/03/13 16:02:38;;;;;;;2.22;2.00;;;11.60;54.70;;;;;;5057601;28;20049;-85
2021/03/13 16:05:08;;;;;;;1.88;1.77;;;11.30;52.20;;;;;;5046797;28;20061;-84
2021/03/13 16:07:34;;;;;;;2.78;2.00;;;11.30;52.20;;;;;;5033647;28;20136;-85
2021/03/13 16:09:59;;;;;;;1.60;1.60;;;11.30;51.60;;;;;;5027030;28;20136;-83
2021/03/13 16:12:25;;;;;;;1.50;1.40;;;11.50;49.70;;;;;;5039138;28;20115;-85
2021/03/13 16:14:51;;;;;;;1.90;1.80;;;11.70;54.20;;;;;;5043543;28;20046;-82
2021/03/13 16:17:17;;;;;;;2.55;2.35;;;11.50;52.10;;;;;;5026317;28;20520;-84
2021/03/13 16:19:43;;;;;;;1.63;1.52;;;11.50;52.40;;;;;;5018458;28;20046;-85
2021/03/13 16:22:09;;;;;;;2.50;1.88;;;11.60;51.60;;;;;;5037293;28;20124;-85
2021/03/13 16:24:34;;;;;;;1.67;1.58;;;11.60;51.90;;;;;;5037883;28;20065;-86
2021/03/13 16:27:00;;;;;;;1.80;1.70;;;11.60;54.10;;;;;;5039173;28;20421;-86
2021/03/13 16:29:26;;;;;;;1.95;1.85;;;11.50;58.80;;;;;;5039844;28;20050;-85
2021/03/13 16:31:52;;;;;;;2.60;2.50;;;11.40;61.80;;;;;;5038082;28;20402;-83
2021/03/13 16:34:17;;;;;;;2.20;2.00;;;11.30;64.40;;;;;;5037611;28;20680;-86
2021/03/13 16:36:43;;;;;;;2.22;2.10;;;11.20;66.50;;;;;;5041722;28;20065;-85
2021/03/13 16:39:10;;;;;;;3.08;2.03;;;11.20;66.90;;;;;;5039103;28;20050;-86
2021/03/13 16:41:37;;;;;;;2.55;1.90;;;11.10;69.10;;;;;;5022943;28;20061;-86
2021/03/13 16:44:04;;;;;;;1.70;1.60;;;10.90;70.30;;;;;;5027888;28;20528;-85
2021/03/13 16:46:31;;;;;;;2.13;1.90;;;10.80;71.90;;;;;;5040292;28;20042;-84
2021/03/13 16:48:57;;;;;;;2.65;2.00;;;10.80;72.10;;;;;;5025537;28;20038;-84
2021/03/13 16:51:23;;;;;;;2.47;2.28;;;;;;;;;;5043467;28;20494;-84
2021/03/13 16:53:49;;;;;;;1.85;1.75;;;10.70;73.80;;;;;;5046127;28;20097;-86
2021/03/13 16:56:17;;;;;;;2.00;1.90;;;10.60;75.50;;;;;;5041822;28;20042;-84